weather June 18, 2001

2001/06/18 09:00 UTC

LFMN 180900Z 16005KT 9999 FEW026 23/11 Q1013 NOSIG

2001/06/18 08:50 UTC

LIRN 180850Z 25008KT 8000 SCT020 27/20 Q1012


6/18 Nice (knots)

6/18 Naples (knots)

Ads by TOK2